Time;durP1;ratioP1;P1;durP2;ratioP2;P2;SDS_P1;SDS_P2;PMS_P1;PMS_P2;Temp;Humidity;BMP_temperature;BMP_pressure;BME280_temperature;BME280_humidity;BME280_pressure;Samples;Min_cycle;Max_cycle;Signal;HPM_P1;HPM_P2
2022/05/14 00:01:01;;;;;;;6.05;5.85;;;;;;;16.54;100.00;100409.47;5031627;28;20018;-62
2022/05/14 00:03:28;;;;;;;6.30;6.00;;;;;;;16.53;100.00;100400.59;5031647;28;20544;-61
2022/05/14 00:05:56;;;;;;;6.10;5.90;;;;;;;16.56;100.00;100407.38;5031683;28;20040;-62
2022/05/14 00:08:22;;;;;;;6.10;5.90;;;;;;;16.49;100.00;100393.22;5027114;28;20026;-62
2022/05/14 00:13:33;;;;;;;6.30;6.00;;;;;;;16.44;100.00;100398.38;5031876;28;20431;-63
2022/05/14 00:15:59;;;;;;;6.00;5.80;;;;;;;16.38;100.00;100385.84;5031545;28;20036;-62
2022/05/14 00:18:24;;;;;;;6.50;6.20;;;;;;;16.34;100.00;100385.47;5031560;28;20512;-64
2022/05/14 00:20:51;;;;;;;6.05;5.85;;;;;;;16.30;100.00;100385.09;5031797;28;20036;-62
2022/05/14 00:23:17;;;;;;;6.07;5.88;;;;;;;16.24;100.00;100382.47;5031279;28;20534;-62
2022/05/14 00:25:43;;;;;;;6.32;6.05;;;;;;;16.24;100.00;100385.97;5030136;28;20021;-62
2022/05/14 00:28:09;;;;;;;6.57;6.28;;;;;;;16.19;100.00;100385.78;5031369;28;20029;-63
2022/05/14 00:30:36;;;;;;;6.28;6.00;;;;;;;16.24;100.00;100388.66;5028369;28;20421;-63
2022/05/14 00:33:02;;;;;;;6.45;6.15;;;;;;;16.25;100.00;100386.78;5024082;28;20049;-63
2022/05/14 00:35:28;;;;;;;6.38;6.07;;;;;;;16.19;100.00;100385.78;5031264;28;20481;-63
2022/05/14 00:37:54;;;;;;;6.03;5.82;;;;;;;16.21;100.00;100388.25;5034032;28;20044;-62
2022/05/14 00:40:28;;;;;;;5.80;5.60;;;;;;;16.19;100.00;100382.28;5033985;28;20033;-62
2022/05/14 00:42:54;;;;;;;6.50;6.20;;;;;;;16.15;100.00;100387.22;5021577;28;20058;-63
2022/05/14 00:45:21;;;;;;;6.40;6.10;;;;;;;16.15;100.00;100373.03;5035278;28;20030;-62
2022/05/14 00:47:51;;;;;;;6.43;6.13;;;;;;;16.13;100.00;100378.59;5034788;28;20029;-62
2022/05/14 00:50:31;;;;;;;6.60;6.30;;;;;;;16.03;100.00;100368.38;5034725;28;20468;-63
2022/05/14 00:53:04;;;;;;;6.30;6.00;;;;;;;16.01;100.00;100366.94;5034968;28;20065;-62
2022/05/14 00:55:30;;;;;;;6.47;6.18;;;;;;;15.95;100.00;100373.97;5034920;28;20029;-62
2022/05/14 00:57:56;;;;;;;6.28;6.03;;;;;;;15.86;100.00;100371.75;5034671;28;20494;-62
2022/05/14 01:00:24;;;;;;;6.10;5.90;;;;;;;15.81;100.00;100377.75;5034639;28;20100;-62
2022/05/14 01:02:49;;;;;;;6.40;6.10;;;;;;;15.81;100.00;100375.06;5034805;28;20476;-62
2022/05/14 01:05:17;;;;;;;6.38;6.07;;;;;;;15.81;100.00;100369.72;5042076;28;20040;-62
2022/05/14 01:07:43;;;;;;;6.68;6.38;;;;;;;15.73;100.00;100376.13;5034152;28;20060;-62
2022/05/14 01:10:11;;;;;;;6.50;6.20;;;;;;;15.69;100.00;100366.88;5034538;28;20445;-62
2022/05/14 01:12:41;;;;;;;6.40;6.10;;;;;;;15.66;100.00;100366.50;5033151;28;20393;-62
2022/05/14 01:15:18;;;;;;;6.22;5.97;;;;;;;15.57;100.00;100363.22;5034545;28;20022;-62
2022/05/14 01:17:44;;;;;;;6.28;6.03;;;;;;;15.60;100.00;100365.44;5034483;28;20026;-62
2022/05/14 01:20:11;;;;;;;6.50;6.20;;;;;;;15.55;100.00;100361.75;5041944;28;20025;-62
2022/05/14 01:22:58;;;;;;;6.40;6.10;;;;;;;15.56;100.00;100372.25;5033436;28;20072;-62
2022/05/14 01:28:32;;;;;;;6.60;6.30;;;;;;;15.42;100.00;100374.16;5031655;28;20592;-63
2022/05/14 01:31:00;;;;;;;6.50;6.20;;;;;;;15.32;100.00;100376.44;5030808;28;20116;-64
2022/05/14 01:33:27;;;;;;;6.57;6.28;;;;;;;15.33;100.00;100374.56;5027659;28;20033;-63
2022/05/14 01:35:53;;;;;;;6.40;6.10;;;;;;;15.36;100.00;100377.66;5026011;28;20077;-63
2022/05/14 01:38:21;;;;;;;6.63;6.32;;;;;;;15.38;100.00;100372.09;5024243;28;20040;-62
2022/05/14 01:40:47;;;;;;;6.35;6.05;;;;;;;15.43;100.00;100383.00;5032936;28;20108;-63
2022/05/14 01:43:14;;;;;;;6.50;6.20;;;;;;;15.35;100.00;100373.34;5033808;28;20045;-62
2022/05/14 01:45:40;;;;;;;6.50;6.20;;;;;;;15.29;100.00;100390.22;5033923;28;20026;-61
2022/05/14 01:48:06;;;;;;;6.25;5.95;;;;;;;15.32;100.00;100389.78;5043956;28;20498;-62
2022/05/14 01:50:32;;;;;;;6.68;6.38;;;;;;;15.26;100.00;100384.47;5033500;28;20026;-62
2022/05/14 01:52:57;;;;;;;6.50;6.20;;;;;;;15.16;100.00;100387.56;5033620;28;20036;-62
2022/05/14 01:55:23;;;;;;;6.68;6.38;;;;;;;15.22;100.00;100396.59;5032308;28;20029;-62
2022/05/14 01:57:49;;;;;;;6.50;6.20;;;;;;;15.26;100.00;100395.16;5033658;28;20485;-61
2022/05/14 02:00:16;;;;;;;7.03;6.72;;;;;;;15.06;100.00;100389.84;5033214;28;20037;-63
2022/05/14 02:02:42;;;;;;;6.40;6.10;;;;;;;15.15;100.00;100401.97;5033366;28;20033;-62
2022/05/14 02:05:08;;;;;;;6.60;6.30;;;;;;;15.04;100.00;100387.38;5033025;28;20021;-63
2022/05/14 02:07:34;;;;;;;6.40;6.10;;;;;;;14.98;100.00;100395.38;5033688;28;20481;-63
2022/05/14 02:09:59;;;;;;;6.35;6.05;;;;;;;14.99;100.00;100397.06;5033307;28;20036;-63
2022/05/14 02:12:25;;;;;;;6.45;6.15;;;;;;;15.02;100.00;100402.78;5033151;28;20036;-62
2022/05/14 02:14:51;;;;;;;6.40;6.10;;;;;;;14.92;100.00;100395.19;5033342;28;20477;-62
2022/05/14 02:17:16;;;;;;;6.60;6.30;;;;;;;14.90;100.00;100401.75;5031900;28;20480;-62
2022/05/14 02:19:42;;;;;;;6.40;6.10;;;;;;;14.96;100.00;100398.25;5033555;28;20440;-62
2022/05/14 02:22:08;;;;;;;6.60;6.30;;;;;;;14.90;100.00;100399.09;5033242;28;20039;-62
2022/05/14 02:24:35;;;;;;;6.00;5.80;;;;;;;14.89;100.00;100406.28;5032992;28;20061;-63
2022/05/14 02:27:01;;;;;;;6.40;6.10;;;;;;;14.89;100.00;100411.63;5030510;28;20035;-62
2022/05/14 02:29:27;;;;;;;6.20;6.00;;;;;;;14.88;100.00;100414.50;5041449;28;20029;-62
2022/05/14 02:31:52;;;;;;;6.50;6.20;;;;;;;14.90;100.00;100415.09;5033027;28;20025;-62
2022/05/14 02:34:18;;;;;;;6.60;6.30;;;;;;;14.95;100.00;100415.31;5032569;28;20493;-62
2022/05/14 02:36:44;;;;;;;6.25;6.00;;;;;;;14.99;100.00;100418.41;5032970;28;20036;-63
2022/05/14 02:39:09;;;;;;;6.30;6.00;;;;;;;15.04;100.00;100423.94;5032780;28;20013;-62
2022/05/14 02:41:35;;;;;;;6.30;6.00;;;;;;;14.87;100.00;100428.88;5032870;28;20040;-62
2022/05/14 02:44:00;;;;;;;6.40;6.10;;;;;;;14.93;100.00;100430.75;5042551;28;20046;-62
2022/05/14 02:46:26;;;;;;;6.40;6.10;;;;;;;14.94;100.00;100429.72;5033031;28;20029;-63
2022/05/14 02:48:52;;;;;;;6.30;6.00;;;;;;;14.99;100.00;100429.94;5031223;28;20382;-62
2022/05/14 02:51:17;;;;;;;6.10;5.90;;;;;;;15.03;100.00;100444.50;5032470;28;20033;-62
2022/05/14 02:53:43;;;;;;;6.03;5.82;;;;;;;15.08;100.00;100438.56;5032640;28;20495;-63
2022/05/14 02:56:08;;;;;;;6.10;5.90;;;;;;;15.10;100.00;100449.84;5028232;28;20032;-63
2022/05/14 03:01:18;;;;;;;6.45;6.15;;;;;;;15.15;100.00;100455.41;5031720;28;20079;-63
2022/05/14 03:03:44;;;;;;;6.00;5.80;;;;;;;15.18;100.00;100441.63;5032519;28;20029;-62
2022/05/14 03:06:10;;;;;;;6.55;6.25;;;;;;;15.08;100.00;100451.91;5032370;28;20029;-62
2022/05/14 03:08:36;;;;;;;6.40;6.10;;;;;;;15.12;100.00;100437.09;5032228;28;20036;-62
2022/05/14 03:11:02;;;;;;;6.60;6.30;;;;;;;15.12;100.00;100450.44;5032123;28;20048;-62
2022/05/14 03:13:27;;;;;;;6.32;6.03;;;;;;;15.28;100.00;100444.72;5031787;28;20021;-62
2022/05/14 03:15:53;;;;;;;6.05;5.85;;;;;;;15.40;100.00;100458.25;5032172;28;20606;-62
2022/05/14 03:18:19;;;;;;;6.45;6.15;;;;;;;15.66;100.00;100455.56;5032090;28;20028;-62
2022/05/14 03:20:45;;;;;;;6.40;6.10;;;;;;;16.18;100.00;100456.41;5023770;28;20033;-62
2022/05/14 03:23:11;;;;;;;6.43;6.13;;;;;;;18.12;100.00;100476.06;5032290;28;20021;-62
2022/05/14 03:25:37;;;;;;;6.47;6.18;;;;;;;17.96;100.00;100480.19;5031981;28;20039;-62
2022/05/14 03:28:03;;;;;;;6.50;6.20;;;;;;;18.38;100.00;100494.53;5031860;28;20485;-63
2022/05/14 03:30:28;;;;;;;6.80;6.50;;;;;;;20.27;100.00;100493.66;5030688;28;20092;-63
2022/05/14 03:32:54;;;;;;;6.60;6.30;;;;;;;21.22;100.00;100498.34;5030981;28;20536;-62
2022/05/14 03:35:19;;;;;;;6.70;6.40;;;;;;;20.91;100.00;100507.81;5019372;28;20104;-63
2022/05/14 03:37:45;;;;;;;6.70;6.40;;;;;;;21.79;100.00;100504.38;5032198;28;20029;-62
2022/05/14 03:40:11;;;;;;;6.80;6.50;;;;;;;21.69;100.00;100509.66;5031847;28;20393;-63
2022/05/14 03:42:37;;;;;;;6.90;6.60;;;;;;;22.34;99.29;100514.31;5031857;28;20129;-64
2022/05/14 03:45:04;;;;;;;6.55;6.25;;;;;;;23.10;93.26;100514.28;5031808;28;20508;-62
2022/05/14 03:47:30;;;;;;;6.80;6.50;;;;;;;24.50;84.97;100516.47;5031775;28;20029;-62
2022/05/14 03:49:55;;;;;;;6.95;6.65;;;;;;;24.61;82.31;100530.06;5030836;28;20035;-64
2022/05/14 03:52:21;;;;;;;6.88;6.57;;;;;;;25.80;74.94;100517.06;5031889;28;20473;-62
2022/05/14 03:54:46;;;;;;;7.07;6.78;;;;;;;25.79;72.95;100520.88;5031670;28;20032;-62
2022/05/14 03:57:13;;;;;;;6.90;6.60;;;;;;;26.52;70.86;100533.94;5031900;28;20036;-62
2022/05/14 03:59:39;;;;;;;7.20;6.90;;;;;;;27.03;67.59;100528.16;5031501;28;20083;-62
2022/05/14 04:02:06;;;;;;;6.82;6.53;;;;;;;26.38;68.88;100523.66;5031503;28;20033;-63
2022/05/14 04:04:32;;;;;;;6.90;6.60;;;;;;;26.00;70.10;100525.19;5031687;28;20028;-63
2022/05/14 04:06:59;;;;;;;6.60;6.30;;;;;;;25.73;70.38;100527.41;5035454;28;20028;-62
2022/05/14 04:09:25;;;;;;;6.88;6.57;;;;;;;24.85;72.18;100528.47;5033454;28;20025;-63
2022/05/14 04:11:52;;;;;;;6.72;6.43;;;;;;;24.72;73.37;100529.81;5034130;28;20029;-64
2022/05/14 04:14:18;;;;;;;6.55;6.25;;;;;;;24.84;70.85;100532.28;5035485;28;20029;-62
2022/05/14 04:16:43;;;;;;;6.60;6.30;;;;;;;25.18;68.86;100534.50;5035348;28;20034;-63
2022/05/14 04:19:09;;;;;;;6.75;6.45;;;;;;;24.90;69.61;100530.38;5035293;28;20027;-62
2022/05/14 04:21:35;;;;;;;6.95;6.65;;;;;;;25.90;67.18;100538.78;5037977;28;20026;-63
2022/05/14 04:24:00;;;;;;;7.03;6.72;;;;;;;25.31;68.62;100536.66;5035392;28;20029;-64
2022/05/14 04:26:26;;;;;;;7.10;6.80;;;;;;;26.54;64.62;100548.91;5035580;28;20025;-63
2022/05/14 04:28:52;;;;;;;7.10;6.80;;;;;;;26.19;64.97;100549.81;5035169;28;20022;-63
2022/05/14 04:31:21;;;;;;;6.93;6.63;;;;;;;26.01;64.78;100548.53;5034893;28;20056;-63
2022/05/14 04:33:47;;;;;;;6.90;6.60;;;;;;;26.28;63.89;100552.78;5035416;28;20033;-62
2022/05/14 04:36:12;;;;;;;6.88;6.57;;;;;;;26.84;62.42;100552.53;5035120;28;20033;-63
2022/05/14 04:38:38;;;;;;;6.97;6.68;;;;;;;25.74;65.07;100553.50;5035014;28;20026;-63
2022/05/14 04:41:03;;;;;;;7.03;6.72;;;;;;;26.35;63.43;100551.38;5026207;28;20017;-62
2022/05/14 04:43:28;;;;;;;6.90;6.60;;;;;;;27.25;60.37;100551.16;5033685;28;20049;-62
2022/05/14 04:45:54;;;;;;;7.28;6.97;;;;;;;26.63;61.66;100558.09;5034548;28;20472;-62
2022/05/14 04:48:20;;;;;;;6.97;6.68;;;;;;;27.30;59.97;100549.50;5034822;28;20037;-63
2022/05/14 04:50:46;;;;;;;7.10;6.80;;;;;;;24.90;69.45;100552.06;5034938;28;20099;-63
2022/05/14 04:53:12;;;;;;;6.95;6.65;;;;;;;26.40;64.86;100562.28;5035140;28;20025;-62
2022/05/14 04:55:37;;;;;;;7.13;6.82;;;;;;;26.69;62.63;100564.31;5034480;28;20028;-64
2022/05/14 04:58:06;;;;;;;7.03;6.72;;;;;;;27.34;59.88;100562.25;5034866;28;20030;-62
2022/05/14 05:00:32;;;;;;;7.00;6.70;;;;;;;28.31;55.95;100572.22;5034279;28;20025;-63
2022/05/14 05:05:41;;;;;;;7.07;6.78;;;;;;;27.54;57.12;100575.72;5036700;28;20040;-63
2022/05/14 05:08:07;;;;;;;7.07;6.78;;;;;;;26.67;61.16;100569.25;5034489;28;20030;-63
2022/05/14 05:10:32;;;;;;;7.10;6.80;;;;;;;28.49;55.87;100576.06;5034341;28;20033;-63
2022/05/14 05:12:58;;;;;;;7.15;6.85;;;;;;;29.39;51.05;100564.13;5034099;28;20037;-63
2022/05/14 05:15:24;;;;;;;7.30;7.00;;;;;;;29.12;52.19;100567.56;5034299;28;20037;-62
2022/05/14 05:17:49;;;;;;;7.22;6.93;;;;;;;30.02;47.82;100579.94;5033981;28;20370;-62
2022/05/14 05:20:15;;;;;;;7.15;6.85;;;;;;;30.57;47.38;100590.88;5034018;28;20075;-62
2022/05/14 05:22:41;;;;;;;6.97;6.68;;;;;;;30.60;46.69;100590.25;5033466;28;20164;-62
2022/05/14 05:25:08;;;;;;;7.25;6.95;;;;;;;31.52;43.33;100590.91;5034334;28;20040;-63
2022/05/14 05:27:34;;;;;;;7.10;6.80;;;;;;;31.82;41.12;100592.06;5033908;28;20041;-62
2022/05/14 05:29:59;;;;;;;6.80;6.50;;;;;;;29.72;43.02;100586.78;5034109;28;20025;-63
2022/05/14 05:32:26;;;;;;;6.90;6.60;;;;;;;30.33;43.29;100598.50;5034218;28;20156;-63
2022/05/14 05:34:51;;;;;;;6.78;6.47;;;;;;;30.14;43.24;100598.63;5034023;28;20106;-63
2022/05/14 05:37:17;;;;;;;6.90;6.60;;;;;;;30.41;41.96;100590.41;5032533;28;20051;-63
2022/05/14 05:39:43;;;;;;;6.95;6.65;;;;;;;30.06;43.17;100589.16;5021968;28;20036;-62
2022/05/14 05:42:08;;;;;;;7.00;6.70;;;;;;;31.31;40.49;100590.59;5033870;28;20461;-62
2022/05/14 05:44:34;;;;;;;7.20;6.90;;;;;;;31.47;40.42;100589.09;5025861;28;20046;-62
2022/05/14 05:47:04;;;;;;;6.97;6.68;;;;;;;30.78;41.13;100596.75;5030613;28;20095;-62
2022/05/14 05:49:30;;;;;;;7.00;6.70;;;;;;;30.74;40.79;100596.56;5033394;28;20022;-64
2022/05/14 05:51:55;;;;;;;6.95;6.65;;;;;;;30.67;40.16;100593.44;5033566;28;20036;-62
2022/05/14 05:57:06;;;;;;;6.97;6.68;;;;;;;31.16;38.88;100588.22;5033718;28;20048;-64
2022/05/14 05:59:32;;;;;;;6.93;6.63;;;;;;;31.79;37.47;100598.97;5033773;28;20017;-64
2022/05/14 06:01:58;;;;;;;7.00;6.70;;;;;;;32.53;36.06;100603.78;5033355;28;20029;-62
2022/05/14 06:04:24;;;;;;;7.10;6.80;;;;;;;32.86;36.00;100604.19;5020035;28;20032;-62
2022/05/14 06:06:50;;;;;;;7.00;6.70;;;;;;;31.34;36.62;100600.94;5033397;28;20530;-63
2022/05/14 06:09:22;;;;;;;7.20;6.90;;;;;;;31.60;36.59;100610.16;5032828;28;20026;-62
2022/05/14 06:11:50;;;;;;;6.95;6.65;;;;;;;31.83;36.27;100607.41;5028541;28;20036;-63
2022/05/14 06:14:16;;;;;;;7.10;6.80;;;;;;;32.35;35.67;100613.94;5033379;28;20033;-63
2022/05/14 06:16:42;;;;;;;7.10;6.80;;;;;;;33.00;34.08;100606.78;5033226;28;20029;-63
2022/05/14 06:19:08;;;;;;;7.18;6.88;;;;;;;32.76;33.47;100610.00;5031551;28;20021;-64
2022/05/14 06:21:35;;;;;;;7.05;6.75;;;;;;;32.39;34.75;100609.44;5033163;28;20036;-64
2022/05/14 06:24:00;;;;;;;7.20;6.90;;;;;;;31.84;35.27;100606.28;5032865;28;20061;-64
2022/05/14 06:26:26;;;;;;;7.10;6.80;;;;;;;33.22;33.70;100617.63;5033421;28;20033;-64
2022/05/14 06:28:51;;;;;;;7.18;6.88;;;;;;;33.58;32.19;100619.22;5033161;28;20033;-63
2022/05/14 06:31:17;;;;;;;7.30;7.00;;;;;;;33.79;31.91;100614.63;5031596;28;20025;-64
2022/05/14 06:33:47;;;;;;;7.30;7.00;;;;;;;33.38;32.10;100615.19;5032540;28;20099;-64
2022/05/14 06:36:14;;;;;;;7.30;7.00;;;;;;;31.32;34.13;100609.47;5032801;28;20022;-64
2022/05/14 06:38:40;;;;;;;7.07;6.78;;;;;;;30.55;36.11;100617.75;5032695;28;20021;-64
2022/05/14 06:41:11;;;;;;;7.15;6.85;;;;;;;32.25;33.30;100619.69;5033149;28;20100;-64
2022/05/14 06:43:38;;;;;;;7.30;7.00;;;;;;;32.42;33.71;100621.72;5029889;28;20057;-64
2022/05/14 06:46:03;;;;;;;7.20;6.90;;;;;;;33.13;32.41;100622.31;5032434;28;20465;-64
2022/05/14 06:48:29;;;;;;;7.10;6.80;;;;;;;31.56;35.05;100619.31;5032154;28;20029;-63
2022/05/14 06:50:59;;;;;;;7.47;7.18;;;;;;;31.41;33.60;100609.53;5032408;28;20026;-63
2022/05/14 06:53:24;;;;;;;7.22;6.93;;;;;;;30.58;34.43;100617.16;5032433;28;20096;-63
2022/05/14 06:55:54;;;;;;;7.20;6.90;;;;;;;30.68;34.44;100618.88;5032008;28;20112;-64
2022/05/14 06:58:23;;;;;;;7.10;6.80;;;;;;;32.13;32.01;100620.28;5032447;28;20018;-63
2022/05/14 07:00:50;;;;;;;7.30;7.00;;;;;;;30.60;34.83;100630.53;5032469;28;20018;-63
2022/05/14 07:08:44;;;;;;;7.00;6.70;;;;;;;32.27;31.70;100631.16;5032713;28;20036;-64
2022/05/14 07:11:10;;;;;;;7.25;6.95;;;;;;;32.07;32.14;100637.19;5029742;28;20389;-64
2022/05/14 07:13:36;;;;;;;7.20;6.90;;;;;;;32.09;32.19;100623.97;5032613;28;20033;-63
2022/05/14 07:16:03;;;;;;;6.90;6.60;;;;;;;30.07;33.91;100617.34;5029696;28;20022;-63
2022/05/14 07:18:28;;;;;;;7.10;6.80;;;;;;;30.86;33.25;100631.63;5029954;28;20053;-62
2022/05/14 07:20:54;;;;;;;7.10;6.80;;;;;;;31.01;33.25;100631.28;5032380;28;20059;-63
2022/05/14 07:23:20;;;;;;;7.30;7.00;;;;;;;32.25;31.81;100638.91;5031906;28;20033;-63
2022/05/14 07:25:45;;;;;;;7.05;6.75;;;;;;;32.29;31.37;100628.91;5036757;28;20021;-62
2022/05/14 07:28:11;;;;;;;7.22;6.93;;;;;;;31.37;32.97;100635.16;5032158;28;20473;-63
2022/05/14 07:30:36;;;;;;;7.13;6.82;;;;;;;32.52;31.33;100639.81;5031857;28;20025;-63
2022/05/14 07:33:02;;;;;;;6.90;6.60;;;;;;;30.05;34.51;100639.53;5031935;28;20104;-63
2022/05/14 07:35:29;;;;;;;6.70;6.40;;;;;;;28.82;36.71;100648.00;5031740;28;20109;-63
2022/05/14 07:37:58;;;;;;;6.95;6.65;;;;;;;29.65;35.88;100644.59;5031658;28;20076;-63
2022/05/14 07:40:26;;;;;;;7.15;6.85;;;;;;;31.15;34.07;100644.97;5031648;28;20033;-62
2022/05/14 07:43:06;;;;;;;7.22;6.93;;;;;;;30.61;34.30;100641.16;5031799;28;20049;-63
2022/05/14 07:45:43;;;;;;;7.20;6.90;;;;;;;29.68;35.32;100635.81;5031356;28;20549;-63
2022/05/14 07:48:16;;;;;;;7.28;6.97;;;;;;;29.18;36.17;100651.06;5031599;28;20085;-63
2022/05/14 07:50:43;;;;;;;7.28;6.97;;;;;;;29.82;35.26;100646.78;5018948;28;20033;-63
2022/05/14 07:53:09;;;;;;;7.15;6.85;;;;;;;28.21;37.45;100649.50;5031565;28;20118;-64
2022/05/14 07:55:34;;;;;;;7.40;7.10;;;;;;;28.16;38.37;100648.75;5031570;28;20477;-62
2022/05/14 07:58:01;;;;;;;7.30;7.00;;;;;;;28.45;38.51;100654.19;5031591;28;20031;-63
2022/05/14 08:00:26;;;;;;;7.25;6.95;;;;;;;27.09;40.81;100644.13;5031787;28;20057;-64
2022/05/14 08:02:52;;;;;;;6.90;6.60;;;;;;;27.23;40.79;100645.94;5031884;28;20048;-63
2022/05/14 08:05:21;;;;;;;7.00;6.70;;;;;;;27.02;41.94;100649.88;5031627;28;20021;-64
2022/05/14 08:07:48;;;;;;;7.10;6.80;;;;;;;26.67;43.09;100640.81;5024030;28;20017;-64
2022/05/14 08:10:16;;;;;;;7.20;6.90;;;;;;;27.53;41.42;100653.09;5031506;28;20037;-62
2022/05/14 08:12:44;;;;;;;7.18;6.88;;;;;;;27.44;41.14;100645.81;5031246;28;20112;-62
2022/05/14 08:15:12;;;;;;;7.15;6.85;;;;;;;26.85;42.54;100660.31;5031757;28;20017;-64
2022/05/14 08:17:38;;;;;;;7.20;6.90;;;;;;;27.19;42.40;100641.38;5062319;28;20053;-62
2022/05/14 08:20:04;;;;;;;6.90;6.60;;;;;;;28.44;39.56;100655.28;5032356;28;20459;-64
2022/05/14 08:25:14;;;;;;;7.03;6.72;;;;;;;27.32;40.07;100661.69;5031896;28;20044;-63
2022/05/14 08:27:47;;;;;;;6.88;6.57;;;;;;;28.27;38.24;100672.88;5031589;28;20485;-64
2022/05/14 08:30:13;;;;;;;7.00;6.70;;;;;;;27.88;37.86;100667.56;5031469;28;20104;-63
2022/05/14 08:32:39;;;;;;;7.20;6.90;;;;;;;27.31;38.91;100662.78;5031642;28;20099;-63
2022/05/14 08:35:05;;;;;;;6.78;6.47;;;;;;;27.54;38.31;100660.19;5029979;28;20025;-64
2022/05/14 08:37:30;;;;;;;7.13;6.82;;;;;;;26.33;38.23;100656.94;5031539;28;20385;-65
2022/05/14 08:39:55;;;;;;;6.95;6.65;;;;;;;26.87;38.30;100669.81;5031570;28;20026;-63
2022/05/14 08:42:21;;;;;;;7.20;6.90;;;;;;;26.91;38.25;100665.44;5017875;28;20481;-62
2022/05/14 08:44:48;;;;;;;7.00;6.70;;;;;;;27.31;38.17;100660.06;5031122;28;20439;-63
2022/05/14 08:47:31;;;;;;;7.18;6.88;;;;;;;27.87;36.19;100655.03;5031144;28;20030;-63
2022/05/14 08:49:57;;;;;;;7.25;6.95;;;;;;;27.87;37.66;100657.75;5041272;28;20034;-63
2022/05/14 08:52:25;;;;;;;7.10;6.80;;;;;;;27.74;36.73;100647.50;5031231;28;20589;-63
2022/05/14 08:54:57;;;;;;;7.00;6.70;;;;;;;27.14;38.09;100655.00;5030990;28;20032;-64
2022/05/14 08:57:57;;;;;;;7.00;6.70;;;;;;;26.95;37.80;100650.16;5031543;28;20393;-64
2022/05/14 09:00:22;;;;;;;7.03;6.72;;;;;;;27.42;38.19;100662.44;5034547;28;20028;-62
2022/05/14 09:02:51;;;;;;;7.00;6.70;;;;;;;27.60;37.82;100668.31;5042385;28;20376;-62
2022/05/14 09:05:24;;;;;;;7.00;6.70;;;;;;;27.71;37.22;100656.25;5034373;28;20036;-63
2022/05/14 09:07:51;;;;;;;7.10;6.80;;;;;;;27.41;37.29;100654.56;5034253;28;20485;-62
2022/05/14 09:10:20;;;;;;;6.60;6.30;;;;;;;26.20;38.88;100646.63;5034585;28;20029;-63
2022/05/14 09:12:57;;;;;;;6.75;6.45;;;;;;;26.89;37.19;100664.94;5034276;28;20456;-63
2022/05/14 09:15:25;;;;;;;7.00;6.70;;;;;;;27.75;36.70;100660.03;5034342;28;20021;-63
2022/05/14 09:18:08;;;;;;;7.13;6.82;;;;;;;26.06;38.74;100659.16;5039245;28;20018;-63
2022/05/14 09:20:46;;;;;;;6.70;6.40;;;;;;;26.79;36.92;100659.50;5034246;28;20033;-63
2022/05/14 09:23:23;;;;;;;6.85;6.55;;;;;;;26.22;37.63;100662.66;5034049;28;20497;-63
2022/05/14 09:25:49;;;;;;;6.80;6.50;;;;;;;26.50;37.05;100653.91;5021645;28;20033;-63
2022/05/14 09:28:37;;;;;;;6.70;6.40;;;;;;;26.69;37.11;100657.66;5034228;28;20076;-64
2022/05/14 09:31:03;;;;;;;6.82;6.53;;;;;;;26.26;38.32;100659.13;5042639;28;20075;-64
2022/05/14 09:33:37;;;;;;;6.80;6.50;;;;;;;26.29;37.79;100644.97;5037917;28;20109;-63
2022/05/14 09:36:04;;;;;;;6.80;6.50;;;;;;;25.82;39.40;100658.94;5034007;28;20030;-63
2022/05/14 09:38:31;;;;;;;6.80;6.50;;;;;;;26.54;38.41;100665.88;5032605;28;20018;-62
2022/05/14 09:41:18;;;;;;;6.68;6.38;;;;;;;25.86;38.96;100665.47;5033810;28;20055;-62
2022/05/14 09:43:45;;;;;;;6.90;6.60;;;;;;;25.28;39.40;100662.13;5021232;28;20111;-63
2022/05/14 09:46:29;;;;;;;6.90;6.60;;;;;;;24.87;39.11;100667.41;5033402;28;20025;-64
2022/05/14 09:49:02;;;;;;;;;;;;;;;26.28;37.54;100664.28;5034209;28;20029;-61
2022/05/14 09:51:30;;;;;;;6.93;6.63;;;;;;;26.61;36.84;100657.44;5033577;28;19916;-63
2022/05/14 09:54:07;;;;;;;6.75;6.45;;;;;;;26.03;36.93;100651.56;5033835;28;20025;-64
2022/05/14 09:57:00;;;;;;;7.10;6.80;;;;;;;25.85;37.23;100650.22;5021229;28;20033;-64
2022/05/14 10:00:09;;;;;;;7.00;6.70;;;;;;;24.79;36.98;100651.66;5033838;28;20064;-63
2022/05/14 10:02:41;;;;;;;6.72;6.43;;;;;;;25.40;36.36;100659.16;5033484;28;20090;-63
2022/05/14 10:05:07;;;;;;;7.00;6.70;;;;;;;25.05;37.50;100644.44;5033402;28;20029;-64
2022/05/14 10:07:42;;;;;;;6.55;6.25;;;;;;;24.33;39.40;100656.06;5033427;28;20864;-64
2022/05/14 10:10:42;;;;;;;6.75;6.45;;;;;;;23.01;41.91;100644.88;5030092;28;20064;-63
2022/05/14 10:13:46;;;;;;;6.75;6.45;;;;;;;24.41;40.42;100633.84;5026607;28;20771;-63
2022/05/14 10:16:24;;;;;;;6.60;6.30;;;;;;;24.46;38.73;100647.44;5018099;28;20037;-63
2022/05/14 10:19:00;;;;;;;6.90;6.60;;;;;;;23.95;39.56;100653.34;5032701;28;20025;-63
2022/05/14 10:21:36;;;;;;;7.10;6.80;;;;;;;24.07;38.32;100645.00;5032896;28;20040;-63
2022/05/14 10:27:17;;;;;;;6.60;6.30;;;;;;;23.92;36.59;100639.50;5033260;28;20172;-64
2022/05/14 10:30:15;;;;;;;6.70;6.40;;;;;;;24.41;36.71;100642.81;5032811;28;20032;-63
2022/05/14 10:32:42;;;;;;;6.90;6.60;;;;;;;24.32;36.93;100641.66;5032781;28;20021;-62
2022/05/14 10:35:19;;;;;;;6.80;6.50;;;;;;;24.26;37.04;100648.13;5032860;28;20124;-63
2022/05/14 10:37:53;;;;;;;6.80;6.50;;;;;;;23.99;37.32;100648.22;5033106;28;20025;-63
2022/05/14 10:40:18;;;;;;;6.70;6.40;;;;;;;24.50;36.99;100651.25;5019618;28;20603;-64
2022/05/14 10:42:53;;;;;;;6.82;6.53;;;;;;;24.26;38.98;100651.63;5032333;28;20125;-63
2022/05/14 10:45:32;;;;;;;6.53;6.22;;;;;;;24.25;38.61;100665.47;5032405;28;20033;-62
2022/05/14 10:47:57;;;;;;;6.70;6.40;;;;;;;24.28;38.11;100643.25;5019546;28;20026;-64
2022/05/14 10:50:23;;;;;;;7.20;6.90;;;;;;;24.15;38.07;100649.13;5032695;28;20033;-63
2022/05/14 10:52:50;;;;;;;6.80;6.50;;;;;;;23.63;39.00;100634.38;5032426;28;20069;-63
2022/05/14 10:55:23;;;;;;;6.80;6.50;;;;;;;23.73;39.37;100628.25;5019930;28;20113;-63
2022/05/14 10:58:00;;;;;;;6.72;6.43;;;;;;;24.20;39.52;100631.00;5032327;28;20044;-64
2022/05/14 11:00:40;;;;;;;6.80;6.50;;;;;;;24.26;38.56;100626.44;5032113;28;20088;-63
2022/05/14 11:03:24;;;;;;;6.97;6.68;;;;;;;24.67;36.91;100624.72;5032135;28;20033;-63
2022/05/14 11:06:02;;;;;;;6.85;6.55;;;;;;;24.36;38.12;100631.91;5032111;28;20133;-63
2022/05/14 11:08:43;;;;;;;6.70;6.40;;;;;;;24.33;37.75;100631.66;5031959;28;20454;-64
2022/05/14 11:11:26;;;;;;;6.60;6.30;;;;;;;23.91;38.26;100633.25;5032436;28;20057;-62
2022/05/14 11:13:58;;;;;;;6.60;6.30;;;;;;;23.46;39.06;100633.69;5023755;28;20026;-63
2022/05/14 11:16:39;;;;;;;6.75;6.45;;;;;;;23.21;41.25;100633.44;5032290;28;20028;-63
2022/05/14 11:19:07;;;;;;;6.78;6.47;;;;;;;23.57;40.69;100638.09;5032083;28;20452;-63
2022/05/14 11:21:43;;;;;;;6.85;6.55;;;;;;;23.76;39.70;100640.47;5031581;28;20035;-63
2022/05/14 11:24:12;;;;;;;6.55;6.25;;;;;;;23.15;39.69;100624.47;5032002;28;20745;-63
2022/05/14 11:26:50;;;;;;;6.93;6.63;;;;;;;23.97;39.19;100631.41;5032017;28;20028;-63
2022/05/14 11:29:21;;;;;;;6.60;6.30;;;;;;;24.38;39.12;100624.34;5031945;28;20389;-62
2022/05/14 11:32:13;;;;;;;6.72;6.43;;;;;;;24.26;37.85;100634.56;5032017;28;20026;-62
2022/05/14 11:34:54;;;;;;;6.78;6.47;;;;;;;23.64;38.96;100624.38;5022863;28;20044;-62
2022/05/14 11:37:28;;;;;;;6.75;6.45;;;;;;;24.01;38.07;100624.38;5031812;28;20029;-63
2022/05/14 11:40:14;;;;;;;6.88;6.57;;;;;;;24.35;38.43;100622.16;5031616;28;20017;-64
2022/05/14 11:42:40;;;;;;;6.63;6.32;;;;;;;24.10;38.10;100627.44;5031075;28;20191;-63
2022/05/14 11:45:20;;;;;;;6.88;6.57;;;;;;;24.28;36.84;100626.97;5031685;28;20108;-63
2022/05/14 11:48:17;;;;;;;7.10;6.80;;;;;;;24.22;37.27;100615.28;5031396;28;20029;-63
2022/05/14 11:51:09;;;;;;;6.90;6.60;;;;;;;24.04;37.69;100629.28;5030284;28;20026;-64
2022/05/14 11:53:40;;;;;;;6.80;6.50;;;;;;;23.39;38.11;100630.38;5031220;28;20041;-63
2022/05/14 11:56:15;;;;;;;6.85;6.55;;;;;;;23.52;38.49;100626.44;5030960;28;20060;-63